地図

経路データ

SID SEASON NUMBER BASIN SUBBASIN NAME ISO_TIME NATURE LAT LON WMO_WIND WMO_PRES WMO_AGENCY TRACK_TYPE DIST2LAND LANDFALL IFLAG USA_AGENCY USA_ATCF_ID USA_LAT USA_LON USA_RECORD USA_STATUS USA_WIND USA_PRES USA_SSHS USA_R34_NE USA_R34_SE USA_R34_SW USA_R34_NW USA_R50_NE USA_R50_SE USA_R50_SW USA_R50_NW USA_R64_NE USA_R64_SE USA_R64_SW USA_R64_NW USA_POCI USA_ROCI USA_RMW USA_EYE TOKYO_LAT TOKYO_LON TOKYO_GRADE TOKYO_WIND TOKYO_PRES TOKYO_R50_DIR TOKYO_R50_LONG TOKYO_R50_SHORT TOKYO_R30_DIR TOKYO_R30_LONG TOKYO_R30_SHORT TOKYO_LAND CMA_LAT CMA_LON CMA_CAT CMA_WIND CMA_PRES HKO_LAT HKO_LON HKO_CAT HKO_WIND HKO_PRES NEWDELHI_LAT NEWDELHI_LON NEWDELHI_GRADE NEWDELHI_WIND NEWDELHI_PRES NEWDELHI_CI NEWDELHI_DP NEWDELHI_POCI REUNION_LAT REUNION_LON REUNION_TYPE REUNION_WIND REUNION_PRES REUNION_TNUM REUNION_CI REUNION_RMW REUNION_R34_NE REUNION_R34_SE REUNION_R34_SW REUNION_R34_NW REUNION_R50_NE REUNION_R50_SE REUNION_R50_SW REUNION_R50_NW REUNION_R64_NE REUNION_R64_SE REUNION_R64_SW REUNION_R64_NW BOM_LAT BOM_LON BOM_TYPE BOM_WIND BOM_PRES BOM_TNUM BOM_CI BOM_RMW BOM_R34_NE BOM_R34_SE BOM_R34_SW BOM_R34_NW BOM_R50_NE BOM_R50_SE BOM_R50_SW BOM_R50_NW BOM_R64_NE BOM_R64_SE BOM_R64_SW BOM_R64_NW BOM_ROCI BOM_POCI BOM_EYE BOM_POS_METHOD BOM_PRES_METHOD NADI_LAT NADI_LON NADI_CAT NADI_WIND NADI_PRES WELLINGTON_LAT WELLINGTON_LON WELLINGTON_WIND WELLINGTON_PRES DS824_LAT DS824_LON DS824_STAGE DS824_WIND DS824_PRES TD9636_LAT TD9636_LON TD9636_STAGE TD9636_WIND TD9636_PRES TD9635_LAT TD9635_LON TD9635_WIND TD9635_PRES TD9635_ROCI NEUMANN_LAT NEUMANN_LON NEUMANN_CLASS NEUMANN_WIND NEUMANN_PRES MLC_LAT MLC_LON MLC_CLASS MLC_WIND MLC_PRES USA_GUST BOM_GUST BOM_GUST_PER REUNION_GUST REUNION_GUST_PER USA_SEAHGT USA_SEARAD_NE USA_SEARAD_SE USA_SEARAD_SW USA_SEARAD_NW STORM_SPEED STORM_DIR
1962355S17185 1963 112 SP MM NOT_NAMED 1962-12-21 00:00:00 TS -17.3000 -175.000 main 468 421 O________OO_O_ jtwc_sh SH071963 -17.3000 -175.000 -1 -17.3000 185.000 TC 35 -17.3000 -175.000 2 -17.3000 -175.000 TC 35 12 64
1962355S17185 1963 112 SP MM NOT_NAMED 1962-12-21 03:00:00 TS -17.0412 -174.454 main 412 363 P________PP_P_ SH071963 -17.0353 -174.442 -1 -17.0353 -174.442 TC 35 -17.0540 -174.416 2 -17.0401 -174.515 TC 35 12 65
1962355S17185 1963 112 SP MM NOT_NAMED 1962-12-21 06:00:00 TS -16.8064 -173.914 main 363 324 O________OP_O_ jtwc_sh SH071963 -16.8000 -173.900 -1 -16.8000 186.100 TC 35 -16.8256 -173.857 2 -16.8000 -174.000 TC 35 11 68
1962355S17185 1963 112 SP MM NOT_NAMED 1962-12-21 09:00:00 TS -16.6198 -173.389 main 324 303 P________PP_P_ SH071963 -16.6199 -173.385 -1 -16.6199 -173.385 TC 35 -16.6343 -173.344 2 -16.6050 -173.442 TC 35 10 72
1962355S17185 1963 112 SP MM NOT_NAMED 1962-12-21 12:00:00 TS -16.5000 -172.900 main 303 291 O________OO_O_ jtwc_sh SH071963 -16.5000 -172.900 -1 -16.5000 187.100 TC 35 -16.5000 -172.900 2 -16.5000 -172.900 TC 35 9 78
1962355S17185 1963 112 SP MM NOT_NAMED 1962-12-21 15:00:00 TS -16.4369 -172.462 main 291 291 P________PP_P_ SH071963 -16.3974 -172.442 -1 -16.3974 -172.442 TC 35 -16.4405 -172.529 2 -16.5123 -172.435 TC 35 8 88
1962355S17185 1963 112 SP MM NOT_NAMED 1962-12-21 18:00:00 TS -16.4665 -172.041 main 303 303 O________OP_O_ jtwc_sh SH071963 -16.4000 -172.000 -1 -16.4000 188.000 TC 35 -16.4658 -172.162 2 -16.6000 -172.000 TC 35 8 100
1962355S17185 1963 112 SP MM NOT_NAMED 1962-12-21 21:00:00 TS -16.5733 -171.656 main 317 317 P________PP_P_ SH071963 -16.5317 -171.632 -1 -16.5317 -171.632 TC 35 -16.5834 -171.715 2 -16.6465 -171.647 TC 35 10 110
1962355S17185 1963 112 SP MM NOT_NAMED 1962-12-22 00:00:00 TS -16.8000 -171.100 main 355 355 O________OO_O_ jtwc_sh SH071963 -16.8000 -171.100 -1 -16.8000 188.900 TC 35 -16.8000 -171.100 2 -16.8000 -171.100 TC 35 15 112
1962355S17185 1963 112 SP MM NOT_NAMED 1962-12-22 03:00:00 TS -17.1525 -170.166 main 436 436 P________PP_P_ SH071963 -17.1701 -170.205 -1 -17.1701 -170.205 TC 35 -17.1141 -170.163 2 -17.1558 -170.091 TC 35 21 112
1962355S17185 1963 112 SP MM NOT_NAMED 1962-12-22 06:00:00 TS -17.5788 -169.040 main 546 546 O________OP_O_ jtwc_sh SH071963 -17.6000 -169.100 -1 -17.6000 190.900 TC 35 -17.5151 -169.058 2 -17.6000 -168.900 TC 35 23 111
1962355S17185 1963 112 SP MM NOT_NAMED 1962-12-22 09:00:00 TS -17.9953 -167.886 main 657 657 P________PP_P_ SH071963 -18.0080 -167.920 -1 -18.0080 -167.920 TC 35 -17.9579 -167.900 2 -18.0074 -167.805 TC 35 23 111
1962355S17185 1963 112 SP MM NOT_NAMED 1962-12-22 12:00:00 TS -18.4000 -166.800 main 773 773 O________OO_O_ jtwc_sh SH071963 -18.4000 -166.800 -1 -18.4000 193.200 TC 35 -18.4000 -166.800 2 -18.4000 -166.800 TC 35 20 112
1962355S17185 1963 112 SP MM NOT_NAMED 1962-12-22 15:00:00 TS -18.7463 -165.947 main 867 867 P________PP_P_ SH071963 -18.7489 -165.947 -1 -18.7489 -165.947 TC 35 -18.7382 -165.933 2 -18.7491 -165.962 TC 35 17 114
1962355S17185 1963 112 SP MM NOT_NAMED 1962-12-22 18:00:00 TS -19.0945 -165.186 main 953 953 O________OP_O_ jtwc_sh SH071963 -19.1000 -165.200 -1 -19.1000 194.800 TC 35 -19.0780 -165.142 2 -19.1000 -165.200 TC 35 16 116
1962355S17185 1963 112 SP MM NOT_NAMED 1962-12-22 21:00:00 TS -19.4655 -164.411 main 1047 1047 P________PP_P_ SH071963 -19.4693 -164.422 -1 -19.4693 -164.422 TC 35 -19.4540 -164.380 2 -19.4693 -164.422 TC 37 17 118
1962355S17185 1963 112 SP MM NOT_NAMED 1962-12-23 00:00:00 TS -19.9000 -163.600 main 1141 1141 O________OO_O_ jtwc_sh SH071963 -19.9000 -163.600 -1 -19.9000 196.400 TC 35 -19.9000 -163.600 2 -19.9000 -163.600 TC 40 19 120
1962355S17185 1963 112 SP MM NOT_NAMED 1962-12-23 03:00:00 TS -20.4135 -162.656 main 1250 1250 P________PP_P_ SH071963 -20.4051 -162.657 -1 -20.4051 -162.657 TC 35 -20.4386 -162.654 2 -20.4051 -162.657 TC 40 21 122
1962355S17185 1963 112 SP MM NOT_NAMED 1962-12-23 06:00:00 TS -21.0120 -161.698 main 1374 1374 O________OP_O_ jtwc_sh SH071963 -21.0000 -161.700 -1 -21.0000 198.300 TC 35 -21.0479 -161.691 2 -21.0000 -161.700 TC 40 22 126
1962355S17185 1963 112 SP MM NOT_NAMED 1962-12-23 09:00:00 TS -21.6795 -160.775 main 1495 1495 P________PP_P_ SH071963 -21.6701 -160.775 -1 -21.6701 -160.775 TC 35 -21.7078 -160.782 2 -21.6702 -160.768 TC 42 21 131
1962355S17185 1963 112 SP MM NOT_NAMED 1962-12-23 12:00:00 TS -22.4000 -160.000 main 1607 1607 O________OO_O_ jtwc_sh SH071963 -22.4000 -160.000 -1 -22.4000 200.000 TC 35 -22.4000 -160.000 2 -22.4000 -160.000 TC 45 19 141
1962355S17185 1963 112 SP MM NOT_NAMED 1962-12-23 15:00:00 TS -23.1524 -159.487 main 1701 1701 P________PP_P_ SH071963 -23.1492 -159.481 -1 -23.1492 -159.481 TC 35 -23.1618 -159.448 2 -23.1491 -159.539 TC 47 17 151
1962355S17185 1963 112 SP MM NOT_NAMED 1962-12-23 18:00:00 TS -23.9108 -159.107 main 1780 1780 O________OP_O_ jtwc_sh SH071963 -23.9000 -159.100 -1 -23.9000 200.900 TC 35 -23.9431 -159.027 2 -23.9000 -159.200 TC 50 17 155
1962355S17185 1963 112 SP MM NOT_NAMED 1962-12-23 21:00:00 TS -24.6662 -158.712 main 1866 1866 P________PP_P_ SH071963 -24.6597 -158.707 -1 -24.6597 -158.707 TC 35 -24.6781 -158.668 2 -24.6673 -158.765 TC 50 16 152
1962355S17185 1963 112 SP MM NOT_NAMED 1962-12-24 00:00:00 TS -25.3000 -158.300 main 1940 1940 O________OO_O_ jtwc_sh SH071963 -25.3000 -158.300 -1 -25.3000 201.700 TC 35 -25.3000 -158.300 2 -25.3000 -158.300 TC 50 13 142
1962355S17185 1963 112 SP MM NOT_NAMED 1962-12-24 03:00:00 TS -25.7082 -157.814 main 2007 2007 P________PP_P_ SH071963 -25.7174 -157.814 -1 -25.7174 -157.814 TC 35 -25.7381 -157.820 2 -25.6599 -157.807 TC 47 11 128
1962355S17185 1963 112 SP MM NOT_NAMED 1962-12-24 06:00:00 TS -25.9893 -157.305 main 2067 2067 O________OP_O_ jtwc_sh SH071963 -26.0000 -157.300 -1 -26.0000 202.700 TC 35 -26.0570 -157.320 2 -25.9000 -157.300 TC 45 11 122
1962355S17185 1963 112 SP MM NOT_NAMED 1962-12-24 09:00:00 TS -26.2717 -156.803 main 2127 2127 P________PP_P_ SH071963 -26.2873 -156.800 -1 -26.2873 -156.800 TC 35 -26.2974 -156.811 2 -26.2148 -156.800 TC 42 10 120
1962355S17185 1963 112 SP MM NOT_NAMED 1962-12-24 12:00:00 TS -26.5000 -156.300 main 2180 2180 O________OO_O_ jtwc_sh SH071963 -26.5000 -156.300 -1 -26.5000 203.700 TC 35 -26.5000 -156.300 2 -26.5000 -156.300 TC 40 10 110
1962355S17185 1963 112 SP MM NOT_NAMED 1962-12-24 15:00:00 TS -26.6075 -155.789 main 2226 2226 P________PP_P_ SH071963 -26.5923 -155.799 -1 -26.5923 -155.799 TC 35 -26.5304 -155.758 2 -26.7148 -155.800 TC 37 9 103
1962355S17185 1963 112 SP MM NOT_NAMED 1962-12-24 18:00:00 TS -26.7160 -155.281 main 2273 2273 O________OP_O_ jtwc_sh SH071963 -26.7000 -155.300 -1 -26.7000 204.700 TC 35 -26.5639 -155.224 2 -26.9000 -155.300 TC 35 9 104
1962355S17185 1963 112 SP MM NOT_NAMED 1962-12-24 21:00:00 TS -26.8406 -154.777 main 2319 2319 P________PP_P_ SH071963 -26.8275 -154.784 -1 -26.8275 -154.784 TC 35 -26.7652 -154.730 2 -26.9422 -154.812 TC 35 11 124
1962355S17185 1963 112 SP MM NOT_NAMED 1962-12-25 00:00:00 TS -27.3000 -154.300 main 2392 2392 O________OO_O_ jtwc_sh SH071963 -27.3000 -154.300 -1 -27.3000 205.700 TC 35 -27.3000 -154.300 2 -27.3000 -154.300 TC 35 18 150
1962355S17185 1963 112 SP MM NOT_NAMED 1962-12-25 03:00:00 TS -28.3652 -153.789 main 2504 2504 P________PP_P_ SH071963 -28.3553 -153.849 -1 -28.3553 -153.849 TC 35 -28.4090 -153.834 2 -28.3410 -153.622 TC 35 26 162
1962355S17185 1963 112 SP MM NOT_NAMED 1962-12-25 06:00:00 TS -29.8124 -153.386 main 2631 2631 O________OP_O_ jtwc_sh SH071963 -29.8000 -153.500 -1 -29.8000 206.500 TC 35 -29.8497 -153.444 2 -29.8000 -153.100 TC 35 31 170
1962355S17185 1963 112 SP MM NOT_NAMED 1962-12-25 09:00:00 TS -31.4079 -153.174 main 2659 2598 P________PP_P_ SH071963 -31.3998 -153.247 -1 -31.3998 -153.247 TC 35 -31.4404 -153.205 2 -31.3919 -152.999 TC 35 32 177
1962355S17185 1963 112 SP MM NOT_NAMED 1962-12-25 12:00:00 TS -33.0000 -153.200 main 2594 2531 O________OO_O_ jtwc_sh SH071963 -33.0000 -153.200 -1 -33.0000 206.800 TC 35 -33.0000 -153.200 2 -33.0000 -153.200 TC 35 30 184
1962355S17185 1963 112 SP MM NOT_NAMED 1962-12-25 15:00:00 TS -34.3486 -153.417 main 2531 2452 P________PP_P_ SH071963 -34.3163 -153.344 -1 -34.3163 -153.344 TC 35 -34.3874 -153.491 2 -34.3742 -153.489 TC 35 26 193
1962355S17185 1963 112 SP MM NOT_NAMED 1962-12-25 18:00:00 TS -35.5540 -153.909 main 2449 2364 O________OP_O_ jtwc_sh SH071963 -35.5000 -153.800 -1 -35.5000 206.200 TC 35 -35.6161 -154.038 2 -35.6000 -154.000 TC 35 26 204
1962355S17185 1963 112 SP MM NOT_NAMED 1962-12-25 21:00:00 TS -36.6934 -154.672 main 2353 2265 P________PP_P_ SH071963 -36.6551 -154.595 -1 -36.6551 -154.595 TC 35 -36.7369 -154.767 2 -36.7267 -154.732 TC 35 26 211
1962355S17185 1963 112 SP MM NOT_NAMED 1962-12-26 00:00:00 TS -37.8000 -155.600 main 2254 O________OO_O_ jtwc_sh SH071963 -37.8000 -155.600 -1 -37.8000 204.400 TC 35 -37.8000 -155.600 2 -37.8000 -155.600 TC 35 27 214

デジタル台風データ・検索

IBTrACS Databaseについて

本データベースは、米国NOAAが公開する1842年以降の世界の熱帯低気圧のベストトラックデータアーカイブInternational Best Track Archive for Climate Stewardship (IBTrACS)を、ウェブで閲覧しやすい形式に変換したものです。

最終更新日:2021-11-26